Time;durP1;ratioP1;P1;durP2;ratioP2;P2;SDS_P1;SDS_P2;PMS_P1;PMS_P2;Temp;Humidity;BMP_temperature;BMP_pressure;BME280_temperature;BME280_humidity;BME280_pressure;Samples;Min_cycle;Max_cycle;Signal;HPM_P1;HPM_P2
2022/04/13 00:01:06;;;;;;;35.03;15.23;;;7.90;99.90;;;;;;5046703;28;20124;-76
2022/04/13 00:03:32;;;;;;;35.22;16.55;;;7.80;99.90;;;;;;5047161;28;20028;-76
2022/04/13 00:05:58;;;;;;;31.75;14.90;;;7.70;99.90;;;;;;5047185;28;20055;-76
2022/04/13 00:08:23;;;;;;;30.77;14.80;;;7.70;99.90;;;;;;5048847;28;20040;-76
2022/04/13 00:10:49;;;;;;;31.88;14.55;;;7.70;99.90;;;;;;5051044;28;20033;-77
2022/04/13 00:13:15;;;;;;;31.42;14.57;;;7.70;99.90;;;;;;5050726;28;20028;-76
2022/04/13 00:15:41;;;;;;;32.30;15.35;;;7.70;99.90;;;;;;5049656;28;20033;-76
2022/04/13 00:18:08;;;;;;;32.85;14.32;;;7.70;99.90;;;;;;5045071;28;20748;-76
2022/04/13 00:20:35;;;;;;;37.00;16.10;;;7.60;99.90;;;;;;5049736;28;20053;-76
2022/04/13 00:23:01;;;;;;;34.78;15.48;;;7.60;99.90;;;;;;5048949;28;20048;-76
2022/04/13 00:25:28;;;;;;;30.88;14.27;;;7.50;99.90;;;;;;5033062;28;20389;-76
2022/04/13 00:27:54;;;;;;;27.10;13.68;;;7.40;99.90;;;;;;5050391;28;20029;-76
2022/04/13 00:30:20;;;;;;;30.30;14.00;;;7.30;99.90;;;;;;5080001;22;20078;-77
2022/04/13 00:32:45;;;;;;;24.45;12.38;;;7.30;99.90;;;;;;5069996;28;20055;-77
2022/04/13 00:35:11;;;;;;;25.83;12.80;;;7.20;99.90;;;;;;5069694;28;20025;-77
2022/04/13 00:37:40;;;;;;;23.77;11.98;;;7.20;99.90;;;;;;5056503;28;20367;-77
2022/04/13 00:40:07;;;;;;;28.02;13.75;;;7.20;99.90;;;;;;5050110;28;20021;-77
2022/04/13 00:42:33;;;;;;;31.98;13.95;;;7.10;99.90;;;;;;5049902;28;20021;-77
2022/04/13 00:44:58;;;;;;;26.33;12.13;;;7.00;99.90;;;;;;5049678;28;20380;-77
2022/04/13 00:47:25;;;;;;;26.13;13.55;;;7.00;99.90;;;;;;5049608;28;20083;-77
2022/04/13 00:49:53;;;;;;;27.20;12.65;;;7.00;99.90;;;;;;5050234;28;20497;-77
2022/04/13 00:52:21;;;;;;;29.33;14.25;;;7.00;99.90;;;;;;5049996;28;20456;-77
2022/04/13 00:54:48;;;;;;;34.35;15.27;;;7.00;99.90;;;;;;5049824;28;20068;-77
2022/04/13 00:57:17;;;;;;;28.60;13.90;;;7.00;99.90;;;;;;5049815;28;20028;-77
2022/04/13 00:59:47;;;;;;;29.08;14.23;;;7.00;99.90;;;;;;5049568;28;20032;-77
2022/04/13 01:02:13;;;;;;;32.85;14.27;;;6.90;99.90;;;;;;5049710;28;20052;-77
2022/04/13 01:04:40;;;;;;;30.08;13.23;;;6.80;99.90;;;;;;5050030;28;20448;-76
2022/04/13 01:07:09;;;;;;;45.75;14.77;;;6.70;99.90;;;;;;5049920;28;20112;-77
2022/04/13 01:09:37;;;;;;;40.03;16.65;;;6.70;99.90;;;;;;5049924;28;20028;-77
2022/04/13 01:12:03;;;;;;;52.03;16.35;;;6.60;99.90;;;;;;5049511;28;20028;-76
2022/04/13 01:14:30;;;;;;;37.17;15.18;;;6.60;99.90;;;;;;5049295;28;20024;-77
2022/04/13 01:16:56;;;;;;;39.05;14.93;;;6.60;99.90;;;;;;5049572;28;20441;-77
2022/04/13 01:19:22;;;;;;;37.15;14.82;;;6.60;99.90;;;;;;5049210;28;20040;-77
2022/04/13 01:21:58;;;;;;;38.38;14.60;;;6.60;99.90;;;;;;5049258;28;20029;-77
2022/04/13 01:24:24;;;;;;;35.75;14.70;;;6.50;99.90;;;;;;5043053;28;20017;-77
2022/04/13 01:26:50;;;;;;;36.17;14.75;;;6.40;99.90;;;;;;5049268;28;20060;-77
2022/04/13 01:29:16;;;;;;;31.55;13.07;;;6.30;99.90;;;;;;5069173;22;20382;-75
2022/04/13 01:31:43;;;;;;;32.13;14.07;;;6.30;99.90;;;;;;5069710;28;20102;-73
2022/04/13 01:34:09;;;;;;;25.88;13.02;;;6.20;99.90;;;;;;5069382;28;20025;-76
2022/04/13 01:36:38;;;;;;;26.42;12.35;;;6.20;99.90;;;;;;5064134;28;20048;-76
2022/04/13 01:39:05;;;;;;;25.50;12.20;;;6.20;99.90;;;;;;5049487;28;20090;-76
2022/04/13 01:41:31;;;;;;;25.80;12.18;;;6.20;99.90;;;;;;5049253;28;20484;-73
2022/04/13 01:43:57;;;;;;;26.42;12.63;;;6.10;99.90;;;;;;5049162;28;20760;-75
2022/04/13 01:46:23;;;;;;;24.67;11.18;;;6.10;99.90;;;;;;5048754;28;20092;-76
2022/04/13 01:48:49;;;;;;;26.02;12.32;;;6.00;99.90;;;;;;5048747;28;20504;-76
2022/04/13 01:51:17;;;;;;;34.78;14.25;;;6.10;99.90;;;;;;5048660;28;20033;-76
2022/04/13 01:53:43;;;;;;;29.17;13.07;;;6.10;99.90;;;;;;5048832;28;20035;-76
2022/04/13 01:56:09;;;;;;;28.63;13.35;;;6.10;99.90;;;;;;5049050;28;20079;-76
2022/04/13 01:58:34;;;;;;;28.88;12.50;;;6.20;99.90;;;;;;5048927;28;20413;-76
2022/04/13 02:01:00;;;;;;;28.67;12.95;;;6.20;99.90;;;;;;5048484;28;20037;-76
2022/04/13 02:03:27;;;;;;;28.48;12.63;;;6.30;99.90;;;;;;5048941;28;20029;-76
2022/04/13 02:05:53;;;;;;;27.80;13.43;;;6.40;99.90;;;;;;5048796;28;20032;-76
2022/04/13 02:08:20;;;;;;;31.15;13.40;;;6.40;99.90;;;;;;5048385;28;20021;-76
2022/04/13 02:10:47;;;;;;;32.40;13.43;;;6.50;99.90;;;;;;5048761;28;20028;-76
2022/04/13 02:13:14;;;;;;;34.47;15.02;;;6.60;99.90;;;;;;5048368;28;20441;-76
2022/04/13 02:15:40;;;;;;;43.72;15.57;;;6.60;99.90;;;;;;5047640;28;20029;-76
2022/04/13 02:18:06;;;;;;;27.85;13.40;;;6.60;99.90;;;;;;5048674;28;20416;-76
2022/04/13 02:20:32;;;;;;;29.50;12.57;;;6.80;99.90;;;;;;5048392;28;20063;-76
2022/04/13 02:22:58;;;;;;;24.83;12.93;;;6.90;99.90;;;;;;5048269;28;20036;-76
2022/04/13 02:25:24;;;;;;;22.60;11.88;;;7.00;99.90;;;;;;5048480;28;20048;-76
2022/04/13 02:27:49;;;;;;;20.65;11.50;;;7.00;99.90;;;;;;5048590;28;20031;-75
2022/04/13 02:30:15;;;;;;;24.25;11.73;;;7.00;99.90;;;;;;5075801;22;20072;-76
2022/04/13 02:32:45;;;;;;;21.63;11.40;;;7.10;99.90;;;;;;5067969;28;20032;-76
2022/04/13 02:35:13;;;;;;;20.95;10.88;;;7.20;99.90;;;;;;5060764;28;20024;-76
2022/04/13 02:37:39;;;;;;;23.70;12.25;;;7.20;99.90;;;;;;5054049;28;20116;-76
2022/04/13 02:40:07;;;;;;;25.60;12.02;;;7.20;99.90;;;;;;5047576;28;20025;-76
2022/04/13 02:42:34;;;;;;;22.38;11.93;;;7.20;99.90;;;;;;5047945;28;20040;-76
2022/04/13 02:45:00;;;;;;;21.52;12.30;;;7.30;99.90;;;;;;5047532;28;20020;-76
2022/04/13 02:47:27;;;;;;;23.58;11.82;;;7.30;99.90;;;;;;5048077;28;20028;-76
2022/04/13 02:49:54;;;;;;;21.63;11.77;;;7.30;99.90;;;;;;5048099;28;20033;-76
2022/04/13 02:52:20;;;;;;;22.35;10.93;;;7.40;99.90;;;;;;5047763;28;20048;-77
2022/04/13 02:54:46;;;;;;;20.85;10.95;;;7.40;99.90;;;;;;5047745;28;20055;-76
2022/04/13 02:57:12;;;;;;;19.48;11.07;;;7.40;99.90;;;;;;5047589;28;20479;-76
2022/04/13 02:59:37;;;;;;;20.65;10.55;;;7.50;99.90;;;;;;5047597;28;20056;-76
2022/04/13 03:02:04;;;;;;;19.48;10.65;;;7.50;99.90;;;;;;5047651;28;20041;-76
2022/04/13 03:04:32;;;;;;;22.83;10.18;;;7.50;99.90;;;;;;5047571;28;20052;-77
2022/04/13 03:06:58;;;;;;;20.58;11.10;;;7.60;99.90;;;;;;5047504;28;20048;-77
2022/04/13 03:09:24;;;;;;;23.55;12.10;;;7.60;99.90;;;;;;5047472;28;20501;-76
2022/04/13 03:11:50;;;;;;;21.42;11.65;;;7.70;99.90;;;;;;5047400;28;20063;-77
2022/04/13 03:14:16;;;;;;;20.45;11.38;;;7.80;99.90;;;;;;5047581;28;20074;-76
2022/04/13 03:16:41;;;;;;;21.60;10.68;;;7.90;99.90;;;;;;5047119;28;20033;-76
2022/04/13 03:19:07;;;;;;;23.90;11.20;;;7.80;99.90;;;;;;5047495;28;20056;-76
2022/04/13 03:21:33;;;;;;;19.42;11.93;;;7.80;99.90;;;;;;5047706;28;20025;-76
2022/04/13 03:23:58;;;;;;;20.33;11.25;;;7.80;99.90;;;;;;5047183;28;20060;-76
2022/04/13 03:26:24;;;;;;;20.48;11.00;;;7.80;99.90;;;;;;5046989;28;20020;-76
2022/04/13 03:28:50;;;;;;;23.45;12.38;;;7.90;99.90;;;;;;5065003;22;20053;-75
2022/04/13 03:31:16;;;;;;;18.42;10.27;;;7.90;99.90;;;;;;5047066;28;20048;-75
2022/04/13 03:33:42;;;;;;;20.23;10.65;;;7.90;99.90;;;;;;5067615;28;20066;-75
2022/04/13 03:36:08;;;;;;;21.13;11.52;;;8.00;99.90;;;;;;5065970;28;20037;-75
2022/04/13 03:38:34;;;;;;;22.35;11.02;;;8.00;99.90;;;;;;5047775;28;20021;-75
2022/04/13 03:41:03;;;;;;;21.83;11.13;;;7.90;99.90;;;;;;5047144;28;20028;-75
2022/04/13 03:43:28;;;;;;;21.45;11.10;;;8.00;99.90;;;;;;5051327;28;20108;-75
2022/04/13 03:45:54;;;;;;;17.92;10.48;;;8.00;99.90;;;;;;5050616;28;20029;-75
2022/04/13 03:48:20;;;;;;;19.50;10.07;;;8.00;99.90;;;;;;5032979;28;20037;-75
2022/04/13 03:50:46;;;;;;;18.35;11.23;;;8.00;99.90;;;;;;5051307;28;20033;-75
2022/04/13 03:53:12;;;;;;;21.23;11.27;;;8.00;99.90;;;;;;5051489;28;20028;-75
2022/04/13 03:55:38;;;;;;;22.80;11.07;;;8.10;99.90;;;;;;5051128;28;20039;-76
2022/04/13 03:58:03;;;;;;;23.52;11.70;;;8.10;99.90;;;;;;5051343;28;20775;-75
2022/04/13 04:00:29;;;;;;;21.98;11.63;;;8.10;99.90;;;;;;5050807;28;20033;-75
2022/04/13 04:02:55;;;;;;;21.50;11.18;;;8.20;99.90;;;;;;5051184;28;20044;-75
2022/04/13 04:05:21;;;;;;;21.35;11.60;;;8.20;99.90;;;;;;5051413;28;20025;-76
2022/04/13 04:07:48;;;;;;;18.80;11.20;;;8.30;99.90;;;;;;5050951;28;20025;-76
2022/04/13 04:10:14;;;;;;;20.20;10.55;;;8.30;99.90;;;;;;5050805;28;20044;-76
2022/04/13 04:12:41;;;;;;;23.30;12.07;;;8.20;99.90;;;;;;5051061;28;20032;-75
2022/04/13 04:15:09;;;;;;;19.35;11.20;;;8.30;99.90;;;;;;5050237;28;20013;-76
2022/04/13 04:17:38;;;;;;;24.67;11.38;;;8.30;99.90;;;;;;5050850;28;20033;-75
2022/04/13 04:20:04;;;;;;;20.23;10.63;;;8.30;99.90;;;;;;5050773;28;20115;-75
2022/04/13 04:22:30;;;;;;;21.65;11.13;;;8.30;99.90;;;;;;5050142;28;20029;-76
2022/04/13 04:24:59;;;;;;;18.23;11.10;;;8.30;99.90;;;;;;5032065;28;20032;-76
2022/04/13 04:27:26;;;;;;;21.17;10.93;;;8.20;99.90;;;;;;5049983;28;20028;-75
2022/04/13 04:29:51;;;;;;;22.05;10.77;;;8.30;99.90;;;;;;5073885;22;20040;-77
2022/04/13 04:32:17;;;;;;;21.80;10.43;;;8.30;99.90;;;;;;5070232;28;20024;-77
2022/04/13 04:34:43;;;;;;;26.08;11.77;;;8.30;99.90;;;;;;5070275;28;20170;-76
2022/04/13 04:37:08;;;;;;;23.38;10.27;;;8.30;99.90;;;;;;5061083;28;20029;-77
2022/04/13 04:39:34;;;;;;;18.35;9.98;;;8.30;99.90;;;;;;5050243;28;20032;-76
2022/04/13 04:42:02;;;;;;;22.23;11.38;;;8.30;99.90;;;;;;5049563;28;20025;-77
2022/04/13 04:44:27;;;;;;;17.88;10.68;;;8.20;99.90;;;;;;5049891;28;20017;-77
2022/04/13 04:46:53;;;;;;;19.13;9.20;;;8.10;99.90;;;;;;5050170;28;20789;-77
2022/04/13 04:49:19;;;;;;;16.15;9.48;;;8.00;99.90;;;;;;5050184;28;20024;-77
2022/04/13 04:51:44;;;;;;;20.88;10.57;;;7.90;99.90;;;;;;5032057;28;20755;-77
2022/04/13 04:54:10;;;;;;;18.58;9.90;;;7.90;99.90;;;;;;5049085;28;20492;-77
2022/04/13 04:56:36;;;;;;;22.55;11.20;;;7.90;99.90;;;;;;5049741;28;20072;-77
2022/04/13 04:59:02;;;;;;;19.13;9.90;;;7.90;99.90;;;;;;5050031;28;20021;-77
2022/04/13 05:01:28;;;;;;;20.42;9.82;;;7.80;99.90;;;;;;5049873;28;20032;-76
2022/04/13 05:03:53;;;;;;;19.63;11.25;;;7.70;99.90;;;;;;5049991;28;20028;-76
2022/04/13 05:06:21;;;;;;;21.92;11.20;;;7.80;99.90;;;;;;5049749;28;20661;-77
2022/04/13 05:08:51;;;;;;;24.05;12.10;;;7.70;99.90;;;;;;5031164;28;20079;-77
2022/04/13 05:11:17;;;;;;;22.95;12.50;;;7.70;99.90;;;;;;5049444;28;20385;-77
2022/04/13 05:13:45;;;;;;;22.38;12.18;;;7.80;99.90;;;;;;5049617;28;20029;-77
2022/04/13 05:16:15;;;;;;;23.95;11.18;;;7.90;99.90;;;;;;5049556;28;20021;-77
2022/04/13 05:18:42;;;;;;;18.45;11.18;;;7.90;99.90;;;;;;5049801;28;20032;-76
2022/04/13 05:21:09;;;;;;;22.50;11.07;;;7.90;99.90;;;;;;5049492;28;20029;-76
2022/04/13 05:23:41;;;;;;;22.55;11.57;;;8.00;99.90;;;;;;5049694;28;20021;-77
2022/04/13 05:26:07;;;;;;;27.75;15.10;;;8.00;99.90;;;;;;5049349;28;20025;-77
2022/04/13 05:31:00;;;;;;;30.77;15.63;;;8.10;99.90;;;;;;5055494;28;20052;-75
2022/04/13 05:33:26;;;;;;;52.15;23.70;;;8.20;99.90;;;;;;5070312;28;20020;-75
2022/04/13 05:35:52;;;;;;;62.83;30.13;;;8.20;99.90;;;;;;5069913;28;20085;-75
2022/04/13 05:38:18;;;;;;;50.17;20.60;;;8.20;99.90;;;;;;5051116;28;20025;-75
2022/04/13 05:40:44;;;;;;;57.65;22.13;;;8.10;99.90;;;;;;5050032;28;20385;-75
2022/04/13 05:43:10;;;;;;;69.25;23.02;;;8.20;99.90;;;;;;5049665;28;20055;-75
2022/04/13 05:45:36;;;;;;;66.90;24.10;;;8.20;99.90;;;;;;5049666;28;20053;-75
2022/04/13 05:48:02;;;;;;;55.92;20.77;;;8.30;99.90;;;;;;5049734;28;20025;-75
2022/04/13 05:50:28;;;;;;;65.60;21.75;;;8.30;99.90;;;;;;5031723;28;20021;-75
2022/04/13 05:52:53;;;;;;;60.42;18.77;;;8.30;99.90;;;;;;5049520;28;20025;-75
2022/04/13 05:55:19;;;;;;;57.38;20.02;;;8.40;99.90;;;;;;5031604;28;20060;-76
2022/04/13 05:57:45;;;;;;;77.57;23.45;;;8.50;99.90;;;;;;5049675;28;20044;-75
2022/04/13 06:00:12;;;;;;;52.08;20.80;;;8.60;99.90;;;;;;5049704;28;20029;-75
2022/04/13 06:02:42;;;;;;;57.95;20.42;;;8.70;99.90;;;;;;5048879;28;20465;-75
2022/04/13 06:05:08;;;;;;;56.85;20.13;;;8.80;99.90;;;;;;5048306;28;20025;-75
2022/04/13 06:07:34;;;;;;;56.85;20.00;;;8.80;99.90;;;;;;5049157;28;20029;-75
2022/04/13 06:10:05;;;;;;;50.75;18.85;;;8.80;99.90;;;;;;5049698;28;20473;-75
2022/04/13 06:12:31;;;;;;;48.88;18.60;;;8.80;99.90;;;;;;5042393;28;20028;-74
2022/04/13 06:15:15;;;;;;;61.00;19.23;;;8.80;99.90;;;;;;5049504;28;20046;-75
2022/04/13 06:17:41;;;;;;;60.83;21.30;;;9.00;99.90;;;;;;5048460;28;20032;-75
2022/04/13 06:20:08;;;;;;;66.00;20.65;;;9.00;99.90;;;;;;5049150;28;20435;-75
2022/04/13 06:22:41;;;;;;;69.53;23.17;;;9.10;99.90;;;;;;5049314;28;20021;-75
2022/04/13 06:25:08;;;;;;;73.40;24.38;;;9.20;99.90;;;;;;5049166;28;20055;-75
2022/04/13 06:27:34;;;;;;;87.93;26.70;;;9.50;99.90;;;;;;5048665;28;20017;-75
2022/04/13 06:30:00;;;;;;;87.10;27.58;;;9.60;99.90;;;;;;5058626;23;20097;-77
2022/04/13 06:32:33;;;;;;;91.95;27.80;;;9.80;99.90;;;;;;5068089;28;20032;-77
2022/04/13 06:35:00;;;;;;;77.07;26.25;;;9.90;99.90;;;;;;5068363;28;20085;-77
2022/04/13 06:37:26;;;;;;;73.70;26.30;;;10.00;99.90;;;;;;5058773;28;20050;-77
2022/04/13 06:39:52;;;;;;;65.40;23.90;;;10.10;99.90;;;;;;5048939;28;20029;-77
2022/04/13 06:42:20;;;;;;;59.78;22.33;;;10.20;99.90;;;;;;5048994;28;20059;-77
2022/04/13 06:44:45;;;;;;;56.67;22.55;;;10.30;99.90;;;;;;5047404;28;20028;-77
2022/04/13 06:47:11;;;;;;;51.28;19.80;;;10.40;99.90;;;;;;5048290;28;20025;-77
2022/04/13 06:49:39;;;;;;;50.70;19.58;;;10.50;99.90;;;;;;5048567;28;20467;-77
2022/04/13 06:52:05;;;;;;;49.33;21.58;;;10.50;99.90;;;;;;5048585;28;20025;-77
2022/04/13 06:54:30;;;;;;;38.55;19.48;;;10.60;99.90;;;;;;5049079;28;20025;-77
2022/04/13 06:56:56;;;;;;;38.92;17.30;;;10.70;99.90;;;;;;5048268;28;20478;-77
2022/04/13 06:59:22;;;;;;;40.83;17.42;;;10.80;99.90;;;;;;5026705;28;20025;-76
2022/04/13 07:01:48;;;;;;;39.25;19.33;;;11.00;99.90;;;;;;5046554;28;20531;-78
2022/04/13 07:04:14;;;;;;;40.97;17.73;;;11.00;99.90;;;;;;5041490;28;20087;-77
2022/04/13 12:50:02;;;;;;;2.70;1.10;;;32.40;33.80;;;;;;5065909;28;20937;-76
2022/04/13 12:52:27;;;;;;;5.55;1.40;;;31.00;32.60;;;;;;5072706;28;20071;-76
2022/04/13 12:55:01;;;;;;;3.40;0.90;;;28.90;37.10;;;;;;5065883;28;20039;-74
2022/04/13 12:57:27;;;;;;;7.05;1.38;;;28.10;38.70;;;;;;5053961;28;20017;-75
2022/04/13 12:59:52;;;;;;;4.13;1.02;;;26.70;43.20;;;;;;5045990;28;20036;-75
2022/04/13 13:02:21;;;;;;;2.30;0.85;;;26.60;43.10;;;;;;5045257;28;20017;-74
2022/04/13 13:04:48;;;;;;;6.47;1.13;;;26.00;42.90;;;;;;5045494;28;20029;-75
2022/04/13 13:07:14;;;;;;;3.20;0.80;;;26.90;42.80;;;;;;5045465;28;20017;-75
2022/04/13 13:09:43;;;;;;;6.35;0.95;;;28.90;40.50;;;;;;5045689;28;20033;-75
2022/04/13 13:12:15;;;;;;;2.63;0.80;;;31.10;34.90;;;;;;5045707;28;20028;-75
2022/04/13 13:14:43;;;;;;;;;;;31.50;34.40;;;;;;5045998;28;20385;-76
2022/04/13 13:17:19;;;;;;;2.10;0.55;;;32.00;34.10;;;;;;5045212;28;19928;-74
2022/04/13 13:19:50;;;;;;;3.30;0.70;;;31.70;33.20;;;;;;5038447;28;20547;-76
2022/04/13 13:22:28;;;;;;;4.50;0.83;;;30.90;33.70;;;;;;5045533;28;20040;-75
2022/04/13 13:25:02;;;;;;;3.97;1.08;;;30.10;36.00;;;;;;5045230;28;20025;-76
2022/04/13 13:27:32;;;;;;;3.40;0.40;;;30.50;35.10;;;;;;5045139;28;20021;-76
2022/04/13 13:30:03;;;;;;;0.80;0.30;;;31.90;35.20;;;;;;5048584;22;20037;-75
2022/04/13 13:32:33;;;;;;;2.10;0.40;;;32.90;31.60;;;;;;5000696;28;20068;-75
2022/04/13 13:35:00;;;;;;;1.92;0.60;;;32.80;31.70;;;;;;5025403;28;20107;-75
2022/04/13 13:37:40;;;;;;;0.98;0.20;;;33.20;32.20;;;;;;5025303;28;20060;-75
2022/04/13 13:40:41;;;;;;;4.43;0.70;;;33.90;30.40;;;;;;5025104;28;20057;-75
2022/04/13 13:43:30;;;;;;;1.75;0.60;;;33.40;30.60;;;;;;5024889;28;20021;-74
2022/04/13 13:45:56;;;;;;;4.45;0.50;;;32.70;30.40;;;;;;5024687;28;20033;-75
2022/04/13 13:48:25;;;;;;;2.50;0.70;;;31.30;32.80;;;;;;5025054;28;20105;-74
2022/04/13 13:50:58;;;;;;;2.28;0.50;;;31.40;33.50;;;;;;5025149;28;20071;-74
2022/04/13 13:53:29;;;;;;;3.38;0.40;;;31.20;31.00;;;;;;5018638;28;20096;-75
2022/04/13 13:55:56;;;;;;;2.67;0.60;;;30.10;33.30;;;;;;5024744;28;20113;-74
2022/04/13 13:58:22;;;;;;;1.70;0.63;;;29.90;34.10;;;;;;5024742;28;20809;-75
2022/04/13 14:00:48;;;;;;;1.80;0.40;;;29.00;34.80;;;;;;5013563;28;20025;-74
2022/04/13 14:03:15;;;;;;;2.30;0.40;;;29.00;36.40;;;;;;5010428;28;20060;-75
2022/04/13 14:05:43;;;;;;;2.80;0.47;;;30.40;35.90;;;;;;5011563;28;20105;-75
2022/04/13 14:08:10;;;;;;;3.22;0.50;;;30.60;35.00;;;;;;5021699;28;20052;-92
2022/04/13 14:10:38;;;;;;;2.78;0.55;;;31.40;33.90;;;;;;5018062;28;20044;-75
2022/04/13 14:13:08;;;;;;;2.15;0.60;;;29.90;34.70;;;;;;5010233;28;20125;-75
2022/04/13 14:15:35;;;;;;;2.83;0.57;;;29.30;35.90;;;;;;5010602;28;20026;-75
2022/04/13 14:18:01;;;;;;;1.48;0.50;;;29.80;35.80;;;;;;5010267;28;20057;-75
2022/04/13 14:20:28;;;;;;;2.17;0.63;;;29.10;36.00;;;;;;5010569;28;20014;-75
2022/04/13 14:22:55;;;;;;;2.67;0.80;;;29.10;35.90;;;;;;5011389;28;20034;-74
2022/04/13 14:25:23;;;;;;;2.67;0.57;;;27.70;36.40;;;;;;5011101;28;20072;-75
2022/04/13 14:27:58;;;;;;;2.60;0.80;;;27.20;39.30;;;;;;5011155;28;20084;-74
2022/04/13 14:30:26;;;;;;;1.10;0.45;;;26.30;41.40;;;;;;5032777;23;20088;-77
2022/04/13 14:32:53;;;;;;;3.33;0.90;;;25.30;42.00;;;;;;5030510;28;20379;-76
2022/04/13 14:35:19;;;;;;;4.10;0.80;;;24.80;45.00;;;;;;5030634;28;20440;-76
2022/04/13 14:37:47;;;;;;;1.95;0.68;;;24.50;44.40;;;;;;5016847;28;20080;-77
2022/04/13 14:40:13;;;;;;;1.95;0.63;;;24.90;44.30;;;;;;5010892;28;20048;-76
2022/04/13 14:42:40;;;;;;;2.70;0.70;;;27.30;41.90;;;;;;5010956;28;20557;-77
2022/04/13 14:45:07;;;;;;;4.10;0.77;;;30.10;38.00;;;;;;5010563;28;20449;-77
2022/04/13 14:47:34;;;;;;;3.67;0.88;;;31.70;34.40;;;;;;5010369;28;20014;-77
2022/04/13 14:50:00;;;;;;;1.42;0.50;;;32.10;32.60;;;;;;5010631;28;20077;-76
2022/04/13 14:52:26;;;;;;;3.25;0.70;;;32.20;34.10;;;;;;5010750;28;20025;-76
2022/04/13 14:54:51;;;;;;;3.40;0.80;;;32.90;31.60;;;;;;5010222;28;20022;-77
2022/04/13 14:57:19;;;;;;;4.07;0.70;;;32.40;30.70;;;;;;5010356;28;20059;-75
2022/04/13 14:59:52;;;;;;;3.55;0.80;;;31.90;32.00;;;;;;5010367;28;20512;-76
2022/04/13 15:02:19;;;;;;;4.32;1.00;;;31.00;32.50;;;;;;5000277;28;20113;-75
2022/04/13 15:04:44;;;;;;;1.13;0.52;;;30.70;32.80;;;;;;5006222;28;20593;-75
2022/04/13 15:07:10;;;;;;;2.50;0.57;;;30.50;34.50;;;;;;5006712;28;20050;-77
2022/04/13 15:09:36;;;;;;;4.03;0.95;;;30.30;33.90;;;;;;5002087;28;20495;-76
2022/04/13 15:12:02;;;;;;;3.53;0.77;;;30.60;34.80;;;;;;5001418;28;20108;-75
2022/04/13 15:14:32;;;;;;;2.70;0.70;;;30.80;32.70;;;;;;5005589;28;20156;-75
2022/04/13 15:16:57;;;;;;;4.70;0.80;;;30.10;35.10;;;;;;5013199;28;20036;-76
2022/04/13 15:19:23;;;;;;;2.55;0.57;;;30.10;35.50;;;;;;5006219;28;20033;-76
2022/04/13 15:21:49;;;;;;;1.63;0.52;;;29.10;35.70;;;;;;5006177;28;20030;-76
2022/04/13 15:24:16;;;;;;;4.13;0.75;;;28.90;35.40;;;;;;4999011;28;20025;-77
2022/04/13 15:26:42;;;;;;;2.72;0.70;;;30.40;35.60;;;;;;5005784;28;20071;-75
2022/04/13 15:31:36;;;;;;;4.95;0.90;;;29.00;34.40;;;;;;5022537;28;20775;-75
2022/04/13 15:34:02;;;;;;;6.13;1.38;;;29.10;35.50;;;;;;5023803;28;20040;-74
2022/04/13 15:36:28;;;;;;;6.38;0.80;;;28.70;37.10;;;;;;5021785;28;20030;-74
2022/04/13 15:38:53;;;;;;;4.30;1.25;;;28.10;37.40;;;;;;5006419;28;20068;-75
2022/04/13 15:41:21;;;;;;;4.38;0.82;;;28.20;37.80;;;;;;5005752;28;20033;-74
2022/04/13 15:43:47;;;;;;;4.97;0.90;;;28.70;37.50;;;;;;5005733;28;20168;-76
2022/04/13 15:46:14;;;;;;;1.65;0.80;;;28.50;37.20;;;;;;5005442;28;20025;-75
2022/04/13 15:48:41;;;;;;;5.40;1.20;;;27.80;38.50;;;;;;5005418;28;20117;-75
2022/04/13 15:51:07;;;;;;;2.42;0.85;;;27.80;39.60;;;;;;5005963;28;20026;-74
2022/04/13 15:53:35;;;;;;;5.32;1.30;;;26.90;38.90;;;;;;5005640;28;20103;-75
2022/04/13 15:56:04;;;;;;;2.35;0.80;;;26.20;41.60;;;;;;5005902;28;20029;-74
2022/04/13 15:58:30;;;;;;;5.18;1.00;;;26.10;41.20;;;;;;5004814;28;20025;-75
2022/04/13 16:00:56;;;;;;;2.58;0.88;;;26.00;42.10;;;;;;5004030;28;20030;-75
2022/04/13 16:03:22;;;;;;;5.80;0.90;;;25.40;43.90;;;;;;5011979;28;20482;-76
2022/04/13 16:05:48;;;;;;;7.10;1.35;;;24.80;44.90;;;;;;5005442;28;20055;-75
2022/04/13 16:08:16;;;;;;;3.53;0.90;;;24.30;46.20;;;;;;5004859;28;20070;-73
2022/04/13 16:10:43;;;;;;;4.10;0.90;;;23.90;45.70;;;;;;4998185;28;20022;-74
2022/04/13 16:13:09;;;;;;;4.75;0.80;;;23.70;46.50;;;;;;5003465;28;20116;-76
2022/04/13 16:15:36;;;;;;;7.10;0.95;;;22.80;48.10;;;;;;5004749;28;20036;-75
2022/04/13 16:18:02;;;;;;;3.17;0.73;;;22.80;49.20;;;;;;5004593;28;20030;-76
2022/04/13 16:20:28;;;;;;;5.53;1.00;;;22.60;50.50;;;;;;5005090;28;20032;-75
2022/04/13 16:22:54;;;;;;;5.93;0.93;;;22.40;49.30;;;;;;5006923;28;20026;-75
2022/04/13 16:25:25;;;;;;;3.88;0.75;;;21.90;51.20;;;;;;5010104;28;20106;-75
2022/04/13 16:27:54;;;;;;;4.43;1.30;;;21.60;52.30;;;;;;5011521;28;20048;-75
2022/04/13 16:30:21;;;;;;;4.15;0.95;;;21.00;54.10;;;;;;5019811;23;20405;-75
2022/04/13 16:32:47;;;;;;;5.57;0.63;;;20.80;55.20;;;;;;5003960;28;20038;-75
2022/04/13 16:35:13;;;;;;;4.05;0.80;;;20.60;55.80;;;;;;5000269;28;20461;-77
2022/04/13 16:37:39;;;;;;;4.53;0.90;;;20.00;57.40;;;;;;5003939;28;20042;-75
2022/04/13 16:40:06;;;;;;;4.45;1.10;;;19.50;60.60;;;;;;4985747;28;20045;-75
2022/04/13 16:42:31;;;;;;;5.50;1.10;;;19.40;62.10;;;;;;4985923;28;20022;-75
2022/04/13 16:44:58;;;;;;;6.50;1.17;;;19.50;61.90;;;;;;4991648;28;20486;-75
2022/04/13 16:47:24;;;;;;;7.03;1.33;;;19.40;64.30;;;;;;4991694;28;20098;-75
2022/04/13 16:49:50;;;;;;;5.85;1.70;;;19.20;65.00;;;;;;4991500;28;20121;-75
2022/04/13 16:52:18;;;;;;;4.93;1.33;;;19.40;67.40;;;;;;4991474;28;20011;-75
2022/04/13 16:54:44;;;;;;;6.75;1.70;;;19.10;66.40;;;;;;4991663;28;20499;-75
2022/04/13 16:57:10;;;;;;;5.80;1.83;;;18.80;68.60;;;;;;4991570;28;20018;-75
2022/04/13 16:59:36;;;;;;;8.63;1.80;;;18.50;69.70;;;;;;4990780;28;20021;-75
2022/04/13 17:02:02;;;;;;;7.78;1.50;;;18.10;70.90;;;;;;4991258;28;20065;-74
2022/04/13 17:04:27;;;;;;;7.45;1.85;;;17.60;73.90;;;;;;4991471;28;20081;-77
2022/04/13 17:06:54;;;;;;;8.38;1.85;;;17.40;76.40;;;;;;4991159;28;20031;-76
2022/04/13 17:09:20;;;;;;;6.68;1.67;;;17.10;78.10;;;;;;4991234;28;20038;-77
2022/04/13 17:11:45;;;;;;;5.55;2.40;;;16.90;80.30;;;;;;4990638;28;20022;-77
2022/04/13 17:14:11;;;;;;;9.40;2.20;;;16.70;81.50;;;;;;4990220;28;20026;-77
2022/04/13 17:16:37;;;;;;;8.05;2.33;;;16.30;83.40;;;;;;4990342;28;20375;-77
2022/04/13 17:19:03;;;;;;;7.32;2.20;;;16.00;85.00;;;;;;4989036;28;20030;-78
2022/04/13 17:21:29;;;;;;;9.18;2.90;;;15.70;88.30;;;;;;4990681;28;20024;-77
2022/04/13 17:23:55;;;;;;;8.75;2.50;;;15.60;90.00;;;;;;4991248;28;20029;-78
2022/04/13 17:26:21;;;;;;;14.82;3.22;;;15.30;90.40;;;;;;4990864;28;20018;-76
2022/04/13 17:28:47;;;;;;;7.05;2.50;;;15.20;91.10;;;;;;4991487;28;20093;-76
2022/04/13 17:31:12;;;;;;;11.35;2.97;;;15.20;91.50;;;;;;4975779;23;20071;-75
2022/04/13 17:33:39;;;;;;;5.20;2.40;;;15.20;91.70;;;;;;4951191;28;20054;-76
2022/04/13 17:36:06;;;;;;;9.20;2.95;;;15.20;91.20;;;;;;4952753;28;20082;-76
2022/04/13 17:38:32;;;;;;;8.38;2.50;;;15.10;91.90;;;;;;4955485;28;20031;-76
2022/04/13 17:40:58;;;;;;;8.68;2.60;;;15.00;92.10;;;;;;4954930;28;20060;-78
2022/04/13 17:43:24;;;;;;;7.97;2.90;;;15.00;92.60;;;;;;4947999;28;20025;-76
2022/04/13 17:45:51;;;;;;;8.05;3.10;;;14.90;92.60;;;;;;4954184;28;20046;-78
2022/04/13 17:48:17;;;;;;;8.20;2.67;;;14.80;92.90;;;;;;4955541;28;20031;-77
2022/04/13 17:50:43;;;;;;;7.90;2.75;;;14.60;93.30;;;;;;4955944;28;20031;-77
2022/04/13 17:53:12;;;;;;;10.60;2.95;;;14.60;93.80;;;;;;4956065;28;20023;-76
2022/04/13 17:55:44;;;;;;;9.07;3.50;;;14.60;94.20;;;;;;4956211;28;20476;-77
2022/04/13 17:58:11;;;;;;;12.15;3.30;;;14.70;93.90;;;;;;4956114;28;20384;-77
2022/04/13 18:00:37;;;;;;;10.55;3.70;;;14.70;93.70;;;;;;4962342;28;20070;-80
2022/04/13 18:03:04;;;;;;;11.18;2.95;;;14.70;93.90;;;;;;4955253;28;20031;-79
2022/04/13 18:05:29;;;;;;;7.40;3.67;;;14.60;93.90;;;;;;4955978;28;20477;-77
2022/04/13 18:07:56;;;;;;;8.45;3.13;;;14.60;94.00;;;;;;4955628;28;20026;-77
2022/04/13 18:10:22;;;;;;;8.43;3.28;;;14.60;94.20;;;;;;4955897;28;20589;-77
2022/04/13 18:12:48;;;;;;;9.70;2.95;;;14.50;94.40;;;;;;4955744;28;20111;-79
2022/04/13 18:15:16;;;;;;;8.55;3.05;;;14.30;94.70;;;;;;4955493;28;20077;-76
2022/04/13 18:17:42;;;;;;;8.60;2.72;;;14.20;95.00;;;;;;4955655;28;20019;-78
2022/04/13 18:20:09;;;;;;;5.35;2.03;;;14.10;95.40;;;;;;4954883;28;20106;-78
2022/04/13 18:22:36;;;;;;;10.90;2.78;;;14.00;95.30;;;;;;4952506;28;20019;-80
2022/04/13 18:25:03;;;;;;;9.20;2.33;;;13.90;95.90;;;;;;4954891;28;20027;-78
2022/04/13 18:27:29;;;;;;;7.70;2.38;;;13.70;96.20;;;;;;4954251;28;20484;-78